Time;durP1;ratioP1;P1;durP2;ratioP2;P2;SDS_P1;SDS_P2;PMS_P1;PMS_P2;Temp;Humidity;BMP_temperature;BMP_pressure;BME280_temperature;BME280_humidity;BME280_pressure;Samples;Min_cycle;Max_cycle;Signal;HPM_P1;HPM_P2
2023/12/06 00:01:42;;;;;;;8.45;5.43;;;2.10;99.90;;;;;;5088307;28;20016;-75
2023/12/06 00:04:08;;;;;;;8.57;4.93;;;2.10;99.90;;;;;;5091296;28;20110;-75
2023/12/06 00:06:33;;;;;;;9.65;5.05;;;2.00;99.90;;;;;;5091391;28;20479;-75
2023/12/06 00:08:59;;;;;;;8.98;5.03;;;2.00;99.90;;;;;;5090010;28;20051;-75
2023/12/06 00:11:25;;;;;;;9.30;4.70;;;1.90;99.90;;;;;;5090978;28;20031;-75
2023/12/06 00:13:51;;;;;;;16.60;8.57;;;2.00;99.90;;;;;;5091630;28;20479;-75
2023/12/06 00:16:17;;;;;;;7.95;5.13;;;2.00;99.90;;;;;;5091897;28;20032;-75
2023/12/06 00:18:45;;;;;;;10.98;6.85;;;2.00;99.90;;;;;;5094846;28;20035;-75
2023/12/06 00:21:11;;;;;;;9.73;5.18;;;2.00;99.90;;;;;;5096060;28;20032;-75
2023/12/06 00:23:36;;;;;;;8.48;4.53;;;1.90;99.90;;;;;;5094187;28;20481;-75
2023/12/06 00:26:02;;;;;;;10.70;5.30;;;1.90;99.90;;;;;;5095256;28;20044;-75
2023/12/06 00:28:28;;;;;;;9.35;5.97;;;1.90;99.90;;;;;;5095723;28;20107;-75
2023/12/06 00:30:53;;;;;;;9.57;5.47;;;1.80;99.90;;;;;;5093427;28;20093;-75
2023/12/06 00:33:19;;;;;;;8.30;5.57;;;1.90;99.90;;;;;;5095053;28;20023;-75
2023/12/06 00:35:45;;;;;;;10.02;5.80;;;1.80;99.90;;;;;;5095298;28;20520;-75
2023/12/06 00:38:11;;;;;;;9.25;5.60;;;1.80;99.90;;;;;;5094274;28;20507;-75
2023/12/06 00:40:36;;;;;;;11.02;5.97;;;1.90;99.90;;;;;;5094176;28;20999;-75
2023/12/06 00:43:06;;;;;;;11.77;5.60;;;1.70;99.90;;;;;;5095851;28;20058;-75
2023/12/06 00:45:32;;;;;;;9.38;5.65;;;1.70;99.90;;;;;;5094181;28;20117;-75
2023/12/06 00:47:58;;;;;;;11.10;7.00;;;1.60;99.90;;;;;;5094487;28;20672;-75
2023/12/06 00:50:24;;;;;;;9.40;5.38;;;1.70;99.90;;;;;;5095202;28;20582;-75
2023/12/06 00:52:49;;;;;;;9.35;5.60;;;1.60;99.90;;;;;;5094226;28;20500;-75
2023/12/06 00:55:15;;;;;;;8.65;4.53;;;1.60;99.90;;;;;;5095516;28;20039;-75
2023/12/06 00:57:41;;;;;;;7.75;4.57;;;1.70;99.90;;;;;;5094405;28;20152;-75
2023/12/06 01:00:08;;;;;;;8.02;4.72;;;1.80;99.90;;;;;;5092649;28;20039;-75
2023/12/06 01:02:33;;;;;;;8.88;5.05;;;1.60;99.90;;;;;;5095258;28;20173;-75
2023/12/06 01:04:59;;;;;;;8.50;4.90;;;1.70;99.90;;;;;;5092199;28;20047;-75
2023/12/06 01:07:25;;;;;;;9.38;5.22;;;1.60;99.90;;;;;;5090526;28;20038;-75
2023/12/06 01:09:51;;;;;;;11.23;7.20;;;1.60;99.90;;;;;;5093394;28;20488;-75
2023/12/06 01:12:17;;;;;;;12.57;7.78;;;1.70;99.90;;;;;;5093768;28;20028;-75
2023/12/06 01:14:43;;;;;;;12.13;7.60;;;1.60;99.90;;;;;;5095055;28;20046;-75
2023/12/06 01:17:09;;;;;;;14.95;9.10;;;1.50;99.90;;;;;;5094234;28;20040;-75
2023/12/06 01:19:34;;;;;;;12.75;7.68;;;1.60;99.90;;;;;;5092149;28;20039;-75
2023/12/06 01:22:00;;;;;;;10.20;6.53;;;1.50;99.90;;;;;;5094468;28;20051;-75
2023/12/06 01:24:25;;;;;;;8.27;5.07;;;1.50;99.90;;;;;;5093497;28;20031;-75
2023/12/06 01:26:51;;;;;;;9.52;5.45;;;1.50;99.90;;;;;;5092989;28;20042;-75
2023/12/06 01:29:17;;;;;;;8.20;5.47;;;1.40;99.90;;;;;;5094208;28;20039;-75
2023/12/06 01:31:42;;;;;;;9.88;5.57;;;1.40;99.90;;;;;;5093188;28;20190;-75
2023/12/06 01:34:08;;;;;;;10.38;6.32;;;1.40;99.90;;;;;;5092425;28;20408;-75
2023/12/06 01:36:35;;;;;;;15.77;6.15;;;1.40;99.90;;;;;;5094668;28;20031;-75
2023/12/06 01:39:01;;;;;;;11.70;6.85;;;1.30;99.90;;;;;;5094201;28;20030;-75
2023/12/06 01:44:49;;;;;;;9.00;5.68;;;1.40;99.90;;;;;;5077955;28;20323;-75
2023/12/06 01:47:19;;;;;;;11.55;6.13;;;1.40;99.90;;;;;;5092597;28;20043;-74
2023/12/06 01:49:45;;;;;;;10.80;6.20;;;1.40;99.90;;;;;;5093417;28;20112;-75
2023/12/06 01:52:11;;;;;;;11.43;6.45;;;1.30;99.90;;;;;;5094186;28;20065;-75
2023/12/06 01:54:37;;;;;;;11.40;5.68;;;1.20;99.90;;;;;;5093633;28;20157;-75
2023/12/06 01:57:03;;;;;;;9.65;5.45;;;1.10;99.90;;;;;;5091797;28;20114;-75
2023/12/06 01:59:29;;;;;;;12.48;5.68;;;1.10;99.90;;;;;;5093832;28;20039;-75
2023/12/06 02:01:54;;;;;;;11.32;5.75;;;1.20;99.90;;;;;;5092657;28;20039;-75
2023/12/06 02:04:20;;;;;;;9.40;4.97;;;1.10;99.90;;;;;;5092085;28;20425;-75
2023/12/06 02:06:46;;;;;;;11.15;6.25;;;1.10;99.90;;;;;;5093485;28;20097;-75
2023/12/06 02:09:12;;;;;;;11.52;5.70;;;1.10;99.90;;;;;;5094151;28;20065;-75
2023/12/06 02:11:38;;;;;;;11.20;6.75;;;1.00;99.90;;;;;;5093072;28;20120;-75
2023/12/06 02:14:04;;;;;;;11.52;6.65;;;1.10;99.90;;;;;;5097125;28;20036;-75
2023/12/06 02:16:30;;;;;;;9.85;5.80;;;0.90;99.90;;;;;;5098050;28;20027;-75
2023/12/06 02:18:56;;;;;;;9.32;6.03;;;1.00;99.90;;;;;;5096359;28;20053;-75
2023/12/06 02:21:22;;;;;;;11.68;6.10;;;0.90;99.90;;;;;;5096960;28;20036;-75
2023/12/06 02:23:50;;;;;;;14.65;5.43;;;0.90;99.90;;;;;;5097278;28;20036;-75
2023/12/06 02:26:16;;;;;;;8.13;5.10;;;0.90;99.90;;;;;;5096465;28;20040;-75
2023/12/06 02:28:42;;;;;;;11.73;6.00;;;0.90;99.90;;;;;;5096153;28;21123;-75
2023/12/06 02:31:07;;;;;;;9.20;5.40;;;1.00;99.90;;;;;;5096211;28;20385;-75
2023/12/06 02:33:34;;;;;;;9.38;5.38;;;0.80;99.90;;;;;;5096747;28;20122;-75
2023/12/06 02:36:02;;;;;;;7.80;5.10;;;0.80;99.90;;;;;;5096206;28;20401;-75
2023/12/06 02:38:30;;;;;;;9.55;5.55;;;0.80;99.90;;;;;;5097501;28;20028;-75
2023/12/06 02:40:58;;;;;;;11.23;5.93;;;0.90;99.90;;;;;;5095622;28;20389;-75
2023/12/06 02:43:23;;;;;;;9.63;5.32;;;1.10;99.90;;;;;;5095998;28;20038;-75
2023/12/06 02:45:50;;;;;;;10.77;5.78;;;1.00;99.90;;;;;;5098174;28;20043;-75
2023/12/06 02:48:16;;;;;;;9.15;5.80;;;1.10;99.90;;;;;;5096352;28;20023;-75
2023/12/06 02:50:42;;;;;;;9.55;5.50;;;1.10;99.90;;;;;;5095823;28;20479;-75
2023/12/06 02:53:07;;;;;;;10.57;5.13;;;1.10;99.90;;;;;;5096216;28;20036;-75
2023/12/06 02:55:33;;;;;;;9.07;4.68;;;1.10;99.90;;;;;;5096904;28;20465;-75
2023/12/06 02:57:59;;;;;;;7.28;3.92;;;1.20;99.90;;;;;;5095760;28;22061;-75
2023/12/06 03:00:24;;;;;;;6.22;3.67;;;1.30;99.90;;;;;;5096764;28;20050;-75
2023/12/06 03:02:50;;;;;;;11.52;5.68;;;1.30;99.90;;;;;;5097510;28;20388;-75
2023/12/06 03:05:16;;;;;;;9.52;4.93;;;1.10;99.90;;;;;;5095345;28;20193;-75
2023/12/06 03:07:41;;;;;;;9.43;5.22;;;1.20;99.90;;;;;;5096649;28;20855;-75
2023/12/06 03:10:07;;;;;;;9.45;4.93;;;1.10;99.90;;;;;;5094128;27;20813;-75
2023/12/06 03:12:33;;;;;;;7.95;4.13;;;1.10;99.90;;;;;;5096112;28;20614;-75
2023/12/06 03:14:58;;;;;;;9.00;5.22;;;0.90;99.90;;;;;;5097126;28;20042;-75
2023/12/06 03:17:24;;;;;;;9.57;5.47;;;0.90;99.90;;;;;;5094977;28;20110;-75
2023/12/06 03:19:50;;;;;;;8.30;4.47;;;0.90;99.90;;;;;;5094484;28;20059;-75
2023/12/06 03:22:15;;;;;;;7.97;4.57;;;0.90;99.90;;;;;;5096282;28;20117;-75
2023/12/06 03:24:41;;;;;;;7.68;4.60;;;0.60;99.90;;;;;;5094798;28;20470;-75
2023/12/06 03:27:07;;;;;;;6.47;4.18;;;0.60;99.90;;;;;;5095186;28;20027;-75
2023/12/06 03:29:33;;;;;;;9.02;4.80;;;0.70;99.90;;;;;;5096469;28;20060;-75
2023/12/06 03:31:58;;;;;;;8.90;4.70;;;0.60;99.90;;;;;;5094462;28;20385;-75
2023/12/06 03:34:24;;;;;;;9.25;4.43;;;0.70;99.90;;;;;;5096299;28;20066;-75
2023/12/06 03:36:49;;;;;;;8.02;4.63;;;0.80;99.90;;;;;;5096254;28;20663;-75
2023/12/06 03:39:16;;;;;;;8.68;4.25;;;1.00;99.90;;;;;;5093994;28;20405;-75
2023/12/06 03:41:42;;;;;;;8.65;4.68;;;1.20;99.90;;;;;;5094092;28;20031;-75
2023/12/06 03:44:08;;;;;;;7.50;3.97;;;1.10;99.90;;;;;;5097292;28;20034;-75
2023/12/06 03:46:34;;;;;;;8.88;4.55;;;1.10;99.90;;;;;;5095604;28;20047;-75
2023/12/06 03:49:01;;;;;;;8.35;4.20;;;1.00;99.90;;;;;;5094569;28;20031;-75
2023/12/06 03:51:26;;;;;;;7.43;3.95;;;0.90;99.90;;;;;;5096419;28;20067;-75
2023/12/06 03:53:52;;;;;;;7.22;4.40;;;1.00;99.90;;;;;;5095527;28;20123;-75
2023/12/06 03:56:18;;;;;;;9.30;4.90;;;1.10;99.90;;;;;;5094694;28;20027;-75
2023/12/06 03:58:43;;;;;;;8.32;5.18;;;1.00;99.90;;;;;;5094543;28;20088;-75
2023/12/06 04:01:09;;;;;;;7.45;4.57;;;0.90;99.90;;;;;;5095705;28;20384;-75
2023/12/06 04:03:35;;;;;;;7.15;4.47;;;0.80;99.90;;;;;;5090880;28;20585;-75
2023/12/06 04:06:00;;;;;;;6.60;3.92;;;0.60;99.90;;;;;;5091679;28;20507;-75
2023/12/06 04:08:26;;;;;;;7.57;4.38;;;0.70;99.90;;;;;;5089430;28;20036;-75
2023/12/06 04:10:51;;;;;;;10.75;5.25;;;1.30;99.90;;;;;;5089859;28;20036;-75
2023/12/06 04:13:17;;;;;;;6.85;4.05;;;1.60;99.90;;;;;;5090462;28;20040;-75
2023/12/06 04:15:43;;;;;;;7.88;4.80;;;1.60;99.90;;;;;;5090094;28;20108;-75
2023/12/06 04:18:08;;;;;;;8.40;4.32;;;1.70;99.90;;;;;;5087309;28;20109;-75
2023/12/06 04:20:34;;;;;;;8.18;4.78;;;1.60;99.90;;;;;;5088836;28;20037;-75
2023/12/06 04:22:59;;;;;;;6.30;3.70;;;1.60;99.90;;;;;;5088066;28;20039;-75
2023/12/06 04:25:25;;;;;;;8.52;4.55;;;1.60;99.90;;;;;;5090397;28;20043;-75
2023/12/06 04:27:51;;;;;;;9.05;5.30;;;1.50;99.90;;;;;;5091597;28;20050;-75
2023/12/06 04:30:17;;;;;;;9.30;5.82;;;1.60;99.90;;;;;;5090286;28;20692;-75
2023/12/06 04:32:42;;;;;;;8.25;5.35;;;1.30;99.90;;;;;;5090995;28;20748;-75
2023/12/06 04:35:10;;;;;;;9.50;4.60;;;1.20;99.90;;;;;;5090807;28;20062;-75
2023/12/06 04:37:36;;;;;;;6.50;4.30;;;1.40;99.90;;;;;;5087581;28;20076;-75
2023/12/06 04:40:01;;;;;;;7.18;4.03;;;1.50;99.90;;;;;;5091011;28;20040;-75
2023/12/06 04:42:27;;;;;;;8.98;4.95;;;1.50;99.90;;;;;;5090809;28;20103;-75
2023/12/06 04:44:53;;;;;;;6.40;4.20;;;1.70;99.90;;;;;;5089498;28;20035;-75
2023/12/06 04:47:18;;;;;;;7.70;4.32;;;1.70;99.90;;;;;;5090405;28;20534;-75
2023/12/06 04:49:44;;;;;;;6.90;3.95;;;1.40;99.90;;;;;;5090466;28;20039;-75
2023/12/06 04:52:09;;;;;;;9.98;4.47;;;1.40;99.90;;;;;;5089321;28;20527;-75
2023/12/06 04:54:35;;;;;;;8.43;5.63;;;1.20;99.90;;;;;;5090628;28;20031;-75
2023/12/06 04:57:01;;;;;;;7.95;4.65;;;1.00;99.90;;;;;;5091675;28;20126;-75
2023/12/06 04:59:26;;;;;;;9.00;4.82;;;1.00;99.90;;;;;;5086845;28;20264;-75
2023/12/06 05:01:53;;;;;;;7.78;4.20;;;1.30;99.90;;;;;;5087402;28;20034;-75
2023/12/06 05:04:19;;;;;;;6.25;3.53;;;1.50;99.90;;;;;;5087919;28;20024;-75
2023/12/06 05:06:45;;;;;;;7.70;3.85;;;1.60;99.90;;;;;;5087244;27;20140;-75
2023/12/06 05:09:11;;;;;;;8.15;4.47;;;1.50;99.90;;;;;;5084556;28;20350;-75
2023/12/06 05:11:37;;;;;;;7.88;4.03;;;1.60;99.90;;;;;;5088109;28;20031;-75
2023/12/06 05:14:03;;;;;;;7.53;4.45;;;1.70;99.90;;;;;;5086607;28;20031;-75
2023/12/06 05:16:29;;;;;;;7.28;3.38;;;1.50;99.90;;;;;;5086483;28;20122;-75
2023/12/06 05:18:55;;;;;;;6.78;4.10;;;1.60;99.90;;;;;;5085599;28;20035;-75
2023/12/06 05:21:20;;;;;;;6.50;4.47;;;1.80;99.90;;;;;;5085777;28;20534;-75
2023/12/06 05:23:46;;;;;;;11.48;4.93;;;1.90;99.90;;;;;;5086383;28;20042;-75
2023/12/06 05:26:12;;;;;;;9.55;5.80;;;1.50;99.90;;;;;;5088039;28;20039;-75
2023/12/06 05:28:37;;;;;;;9.80;5.47;;;1.00;99.90;;;;;;5085663;28;20040;-75
2023/12/06 05:31:03;;;;;;;9.65;5.07;;;0.80;99.90;;;;;;5085876;28;20757;-75
2023/12/06 05:33:29;;;;;;;7.43;4.18;;;0.80;99.90;;;;;;5088113;28;20134;-75
2023/12/06 05:35:57;;;;;;;8.60;3.75;;;0.90;99.90;;;;;;5085420;28;20043;-75
2023/12/06 05:38:23;;;;;;;7.07;3.83;;;0.90;99.90;;;;;;5086592;28;20485;-75
2023/12/06 05:40:49;;;;;;;6.65;3.90;;;1.00;99.90;;;;;;5084434;28;20031;-75
2023/12/06 05:43:15;;;;;;;7.90;3.90;;;1.10;99.90;;;;;;5086582;28;20035;-75
2023/12/06 05:45:41;;;;;;;7.88;4.05;;;1.00;99.90;;;;;;5088156;28;20430;-75
2023/12/06 05:48:07;;;;;;;7.90;3.78;;;1.20;99.90;;;;;;5085084;28;20497;-75
2023/12/06 05:50:33;;;;;;;6.30;3.30;;;1.40;99.90;;;;;;5085900;28;20047;-75
2023/12/06 05:52:59;;;;;;;6.60;3.83;;;1.40;99.90;;;;;;5087683;28;20389;-75
2023/12/06 05:55:24;;;;;;;5.93;3.17;;;1.30;99.90;;;;;;5085703;28;20492;-75
2023/12/06 05:57:50;;;;;;;7.35;4.53;;;1.30;99.90;;;;;;5086178;28;20032;-75
2023/12/06 06:00:17;;;;;;;5.13;3.47;;;1.50;99.90;;;;;;5086196;28;20035;-75
2023/12/06 06:02:43;;;;;;;7.35;4.05;;;1.50;99.90;;;;;;5086229;28;20033;-75
2023/12/06 06:05:10;;;;;;;6.18;3.50;;;1.50;99.90;;;;;;5084971;28;20071;-75
2023/12/06 06:07:36;;;;;;;10.95;4.68;;;1.20;99.90;;;;;;5086037;28;20088;-75
2023/12/06 06:10:03;;;;;;;7.68;4.28;;;0.90;99.90;;;;;;5086687;28;20118;-75
2023/12/06 06:12:29;;;;;;;7.82;3.97;;;0.80;99.90;;;;;;5085426;28;20047;-75
2023/12/06 06:14:55;;;;;;;6.70;3.90;;;0.60;99.90;;;;;;5085452;28;20824;-75
2023/12/06 06:17:21;;;;;;;9.95;4.88;;;0.60;99.90;;;;;;5087519;28;20035;-75
2023/12/06 06:19:46;;;;;;;6.38;3.88;;;0.50;99.90;;;;;;5086467;28;20031;-75
2023/12/06 06:22:12;;;;;;;6.65;3.53;;;0.50;99.90;;;;;;5084991;28;20063;-75
2023/12/06 06:24:38;;;;;;;6.13;2.70;;;0.50;99.90;;;;;;5087993;28;20050;-76
2023/12/06 06:27:04;;;;;;;5.90;2.53;;;0.60;99.90;;;;;;5088498;28;20039;-75
2023/12/06 06:29:29;;;;;;;7.35;3.67;;;0.70;99.90;;;;;;5086041;28;20031;-75
2023/12/06 06:31:55;;;;;;;7.63;3.55;;;0.60;99.90;;;;;;5087636;28;20023;-75
2023/12/06 06:34:20;;;;;;;7.35;3.88;;;0.60;99.90;;;;;;5084805;28;20070;-75
2023/12/06 06:36:46;;;;;;;6.32;3.53;;;0.70;99.90;;;;;;5089426;28;20046;-74
2023/12/06 06:39:12;;;;;;;7.00;3.75;;;0.70;99.90;;;;;;5087227;28;20032;-74
2023/12/06 06:41:39;;;;;;;5.80;3.50;;;1.00;99.90;;;;;;5085512;28;20153;-74
2023/12/06 06:44:04;;;;;;;7.15;3.85;;;1.50;99.90;;;;;;5084512;28;20035;-74
2023/12/06 06:46:30;;;;;;;7.32;3.67;;;1.20;99.90;;;;;;5083010;28;20516;-74
2023/12/06 06:48:56;;;;;;;8.68;3.92;;;1.10;99.90;;;;;;5083492;28;20043;-74
2023/12/06 06:51:35;;;;;;;7.00;4.18;;;1.00;99.90;;;;;;5084125;28;20123;-74
2023/12/06 06:54:01;;;;;;;8.57;3.65;;;0.90;99.90;;;;;;5084689;28;20038;-74
2023/12/06 06:56:27;;;;;;;9.32;3.33;;;0.90;99.90;;;;;;5085690;28;21370;-74
2023/12/06 06:58:53;;;;;;;7.07;3.53;;;1.10;99.90;;;;;;5085515;28;20031;-74
2023/12/06 07:01:18;;;;;;;6.20;3.35;;;1.40;99.90;;;;;;5089171;28;20111;-74
2023/12/06 07:03:44;;;;;;;5.40;3.15;;;1.50;99.90;;;;;;5087265;28;20103;-76
2023/12/06 07:06:10;;;;;;;8.52;3.75;;;1.20;99.90;;;;;;5087662;28;20075;-74
2023/12/06 07:08:36;;;;;;;7.13;3.72;;;1.00;99.90;;;;;;5088998;28;20043;-74
2023/12/06 07:11:04;;;;;;;5.55;3.25;;;1.00;99.90;;;;;;5088518;28;20028;-74
2023/12/06 07:13:30;;;;;;;6.85;3.50;;;0.80;99.90;;;;;;5086591;28;20058;-74
2023/12/06 07:15:56;;;;;;;9.35;3.78;;;0.90;99.90;;;;;;5086662;28;20039;-74
2023/12/06 07:18:21;;;;;;;9.05;4.65;;;1.10;99.90;;;;;;5088429;28;20043;-74
2023/12/06 07:20:48;;;;;;;6.75;3.92;;;1.10;99.90;;;;;;5087994;28;20024;-74
2023/12/06 07:23:14;;;;;;;6.20;3.42;;;0.80;99.90;;;;;;5087825;28;20032;-74
2023/12/06 07:25:39;;;;;;;6.85;3.30;;;0.90;99.90;;;;;;5089051;28;20069;-75
2023/12/06 07:28:05;;;;;;;6.60;3.35;;;0.80;99.90;;;;;;5087567;28;20031;-75
2023/12/06 07:30:31;;;;;;;6.13;3.70;;;0.90;99.90;;;;;;5087230;28;20027;-75
2023/12/06 07:32:57;;;;;;;6.72;3.67;;;1.30;99.90;;;;;;5088909;28;20502;-75
2023/12/06 07:35:22;;;;;;;5.53;3.38;;;1.40;99.90;;;;;;5086035;28;20051;-75
2023/12/06 07:37:48;;;;;;;6.05;3.60;;;1.40;99.90;;;;;;5079606;28;20027;-74
2023/12/06 07:40:14;;;;;;;7.30;4.15;;;1.40;99.90;;;;;;5088650;28;20169;-74
2023/12/06 07:42:40;;;;;;;7.05;3.75;;;1.60;99.90;;;;;;5088185;28;20041;-74
2023/12/06 07:45:11;;;;;;;6.82;3.40;;;1.70;99.90;;;;;;5087173;28;20304;-74
2023/12/06 07:47:38;;;;;;;5.68;3.25;;;1.80;99.90;;;;;;5088629;28;21347;-74
2023/12/06 07:50:08;;;;;;;5.95;3.58;;;1.70;99.90;;;;;;5087827;28;20039;-74
2023/12/06 07:52:34;;;;;;;8.90;4.57;;;1.70;99.90;;;;;;5087234;28;20040;-74
2023/12/06 07:55:00;;;;;;;12.07;6.80;;;1.40;99.90;;;;;;5085145;28;21259;-75
2023/12/06 07:57:28;;;;;;;9.35;4.75;;;1.40;99.90;;;;;;5088270;28;20633;-75
2023/12/06 07:59:56;;;;;;;16.85;11.68;;;1.40;99.90;;;;;;5087827;28;20027;-75
2023/12/06 08:02:22;;;;;;;14.85;8.38;;;1.30;99.90;;;;;;5088943;28;20043;-74
2023/12/06 08:04:48;;;;;;;10.70;6.60;;;1.10;99.90;;;;;;5085521;28;20685;-75
2023/12/06 08:07:13;;;;;;;10.23;6.93;;;1.00;99.90;;;;;;5087672;28;20076;-75
2023/12/06 08:09:40;;;;;;;10.88;6.93;;;1.00;99.90;;;;;;5088510;28;20489;-75
2023/12/06 08:12:07;;;;;;;11.75;7.53;;;1.00;99.90;;;;;;5087834;28;20063;-75
2023/12/06 08:14:33;;;;;;;11.25;7.18;;;1.10;99.90;;;;;;5088035;28;20043;-75
2023/12/06 08:16:59;;;;;;;10.35;6.63;;;1.20;99.90;;;;;;5088957;28;20038;-75
2023/12/06 08:19:24;;;;;;;7.70;5.03;;;1.30;99.90;;;;;;5087772;28;20036;-74
2023/12/06 08:21:50;;;;;;;8.23;5.25;;;1.40;99.90;;;;;;5087982;28;20028;-75
2023/12/06 08:24:16;;;;;;;9.63;5.53;;;1.50;99.90;;;;;;5089263;28;20035;-75
2023/12/06 08:26:42;;;;;;;10.07;5.40;;;1.60;99.90;;;;;;5087689;28;20055;-75
2023/12/06 08:29:08;;;;;;;8.55;4.57;;;1.60;99.90;;;;;;5087855;28;20130;-75
2023/12/06 08:31:36;;;;;;;10.38;5.20;;;1.70;99.90;;;;;;5088997;28;20122;-75
2023/12/06 08:34:01;;;;;;;35.65;18.98;;;1.70;99.90;;;;;;5078251;28;20043;-75
2023/12/06 08:36:27;;;;;;;84.43;44.42;;;1.60;99.90;;;;;;5086352;28;20027;-75
2023/12/06 08:38:53;;;;;;;59.38;30.55;;;1.60;99.90;;;;;;5090362;28;20695;-75
2023/12/06 08:41:19;;;;;;;39.13;20.95;;;1.50;99.90;;;;;;5088162;28;21173;-75
2023/12/06 08:43:45;;;;;;;47.35;26.77;;;1.70;99.90;;;;;;5088219;28;20562;-75
2023/12/06 08:46:11;;;;;;;22.17;13.90;;;1.90;99.90;;;;;;5090550;28;20043;-75
2023/12/06 08:48:37;;;;;;;20.77;11.75;;;2.00;99.90;;;;;;5088729;28;20073;-75
2023/12/06 08:51:03;;;;;;;16.13;9.60;;;2.10;99.90;;;;;;5089460;28;20108;-75
2023/12/06 08:53:29;;;;;;;13.98;7.57;;;2.10;99.90;;;;;;5090693;28;20657;-75
2023/12/06 08:55:56;;;;;;;11.80;7.25;;;1.90;99.90;;;;;;5088616;28;21735;-75
2023/12/06 08:58:22;;;;;;;17.33;10.05;;;1.70;99.90;;;;;;5090269;28;20070;-75
2023/12/06 09:00:48;;;;;;;14.18;9.00;;;1.90;99.90;;;;;;5089848;28;20042;-76
2023/12/06 09:03:14;;;;;;;54.05;31.30;;;2.10;99.90;;;;;;5089081;28;20035;-75
2023/12/06 09:05:39;;;;;;;32.35;19.90;;;2.30;99.90;;;;;;5089772;28;20378;-76
2023/12/06 09:08:06;;;;;;;26.15;15.38;;;2.50;99.90;;;;;;5089998;28;20035;-76
2023/12/06 09:10:32;;;;;;;18.58;12.05;;;2.50;99.90;;;;;;5088387;28;20039;-76
2023/12/06 09:12:57;;;;;;;17.88;8.98;;;2.40;99.90;;;;;;5090253;28;20093;-76
2023/12/06 09:15:23;;;;;;;26.92;18.85;;;2.40;99.90;;;;;;5090588;28;20058;-76
2023/12/06 09:17:49;;;;;;;28.02;20.58;;;2.40;99.90;;;;;;5089120;28;20031;-76
2023/12/06 09:20:16;;;;;;;21.42;14.55;;;2.70;99.90;;;;;;5089059;28;20642;-76
2023/12/06 09:22:42;;;;;;;11.68;7.38;;;2.80;99.90;;;;;;5089469;28;20451;-76
2023/12/06 09:25:08;;;;;;;9.45;5.43;;;2.60;99.90;;;;;;5088597;28;20154;-76
2023/12/06 09:27:34;;;;;;;5.55;2.95;;;2.60;99.90;;;;;;5088886;28;20508;-76
2023/12/06 09:29:59;;;;;;;7.32;3.88;;;2.90;99.90;;;;;;5090182;28;20161;-76
2023/12/06 09:32:25;;;;;;;8.38;4.80;;;3.10;99.90;;;;;;5088228;28;20084;-76
2023/12/06 09:34:52;;;;;;;14.85;6.30;;;2.80;99.90;;;;;;5087925;28;20100;-75
2023/12/06 09:37:18;;;;;;;20.02;15.50;;;2.80;99.90;;;;;;5088864;28;20541;-76
2023/12/06 09:39:43;;;;;;;13.95;9.73;;;2.80;99.90;;;;;;5088540;28;20756;-77
2023/12/06 09:42:10;;;;;;;23.80;15.20;;;2.90;99.90;;;;;;5088521;28;20115;-76
2023/12/06 09:44:37;;;;;;;19.25;12.60;;;3.00;99.90;;;;;;5089100;28;20063;-76
2023/12/06 09:47:03;;;;;;;11.20;7.53;;;3.00;99.90;;;;;;5088179;28;20517;-76
2023/12/06 09:49:29;;;;;;;10.18;6.53;;;2.90;99.90;;;;;;5088764;28;20039;-76
2023/12/06 09:52:21;;;;;;;9.82;6.22;;;2.90;99.90;;;;;;5089096;28;20035;-76
2023/12/06 09:54:49;;;;;;;10.07;5.78;;;3.00;99.90;;;;;;5089670;28;20539;-76
2023/12/06 09:57:16;;;;;;;10.32;6.18;;;3.10;99.90;;;;;;5087993;28;20036;-75
2023/12/06 09:59:41;;;;;;;10.35;5.80;;;3.20;99.90;;;;;;5087713;28;20032;-75
2023/12/06 10:02:07;;;;;;;11.45;6.57;;;3.20;99.90;;;;;;5087481;28;20043;-76
2023/12/06 10:04:34;;;;;;;11.80;7.65;;;3.40;99.90;;;;;;5085678;28;20089;-76
2023/12/06 10:07:03;;;;;;;9.55;5.97;;;3.50;99.90;;;;;;5085384;28;20069;-76
2023/12/06 10:09:29;;;;;;;8.57;6.03;;;3.50;99.90;;;;;;5086100;28;20028;-75
2023/12/06 10:12:09;;;;;;;7.45;4.47;;;3.60;99.90;;;;;;5086744;28;20089;-76
2023/12/06 10:14:35;;;;;;;8.07;5.15;;;3.70;99.90;;;;;;5083421;28;20036;-77
2023/12/06 10:17:01;;;;;;;9.18;5.53;;;3.60;99.90;;;;;;5084968;28;20613;-77
2023/12/06 10:19:27;;;;;;;8.75;5.50;;;3.60;99.90;;;;;;5086361;28;20446;-74
2023/12/06 10:21:53;;;;;;;8.52;5.15;;;3.70;99.90;;;;;;5085574;28;20043;-73
2023/12/06 10:24:18;;;;;;;10.43;5.78;;;3.90;99.90;;;;;;5085686;28;20039;-75
2023/12/06 10:26:46;;;;;;;8.60;5.28;;;3.80;99.90;;;;;;5086454;28;20097;-73
2023/12/06 10:29:12;;;;;;;9.75;6.30;;;3.80;99.90;;;;;;5085067;28;20023;-73
2023/12/06 10:31:42;;;;;;;10.80;4.93;;;4.20;99.90;;;;;;5087147;28;20040;-73
2023/12/06 10:34:09;;;;;;;9.30;6.22;;;4.30;99.90;;;;;;5094679;28;20051;-73
2023/12/06 10:36:39;;;;;;;9.07;5.18;;;4.20;99.90;;;;;;5098420;28;20560;-73
2023/12/06 10:39:11;;;;;;;10.32;6.03;;;4.00;99.90;;;;;;5098107;27;20038;-73
2023/12/06 10:41:40;;;;;;;15.93;6.63;;;3.90;99.90;;;;;;5097994;27;20031;-73
2023/12/06 10:44:09;;;;;;;11.38;7.30;;;4.00;99.90;;;;;;5098096;28;20042;-73
2023/12/06 10:46:36;;;;;;;11.00;6.82;;;4.20;99.90;;;;;;5098035;28;20047;-73
2023/12/06 10:49:03;;;;;;;10.70;6.47;;;4.10;99.90;;;;;;5098407;27;20027;-73
2023/12/06 10:51:30;;;;;;;9.68;5.68;;;4.00;99.90;;;;;;5097515;28;20543;-73
2023/12/06 10:53:59;;;;;;;9.38;5.75;;;4.10;99.90;;;;;;5097809;28;20102;-73
2023/12/06 10:56:26;;;;;;;11.10;5.60;;;4.10;99.90;;;;;;5097602;28;20027;-73
2023/12/06 10:58:53;;;;;;;10.85;5.65;;;4.20;99.90;;;;;;5096867;28;20019;-73
2023/12/06 11:01:20;;;;;;;7.90;4.60;;;4.30;99.90;;;;;;5096732;28;20039;-73
2023/12/06 11:03:45;;;;;;;11.18;5.07;;;4.30;99.90;;;;;;5097013;28;20121;-73
2023/12/06 11:06:26;;;;;;;10.43;5.70;;;4.20;99.90;;;;;;5096275;28;20035;-73
2023/12/06 11:09:13;;;;;;;10.00;6.40;;;4.30;99.90;;;;;;5096389;28;21094;-73
2023/12/06 11:11:45;;;;;;;9.48;4.82;;;4.30;99.90;;;;;;5097137;28;20031;-73
2023/12/06 11:14:46;;;;;;;7.80;5.25;;;4.30;99.90;;;;;;5097520;28;20035;-73
2023/12/06 11:17:33;;;;;;;10.98;5.97;;;4.30;99.90;;;;;;5096492;28;20119;-73
2023/12/06 11:19:59;;;;;;;12.60;5.68;;;4.30;99.90;;;;;;5096151;28;20032;-73
2023/12/06 11:22:25;;;;;;;8.90;5.18;;;4.20;99.90;;;;;;5097445;28;20058;-73
2023/12/06 11:24:51;;;;;;;8.48;5.05;;;4.30;99.90;;;;;;5096657;28;20016;-73
2023/12/06 11:27:19;;;;;;;8.63;5.43;;;4.30;99.90;;;;;;5097161;28;20563;-73
2023/12/06 11:29:45;;;;;;;19.50;9.23;;;4.40;99.90;;;;;;5095718;28;20408;-73
2023/12/06 11:32:13;;;;;;;12.40;6.25;;;4.50;99.90;;;;;;5096470;28;20024;-73
2023/12/06 11:34:40;;;;;;;11.10;6.47;;;4.40;99.90;;;;;;5089788;28;20055;-73
2023/12/06 11:37:17;;;;;;;10.18;5.72;;;4.30;99.90;;;;;;5091547;28;20517;-73
2023/12/06 11:39:48;;;;;;;12.13;6.88;;;4.30;99.90;;;;;;5090975;28;20067;-73
2023/12/06 11:42:18;;;;;;;14.50;7.43;;;4.30;99.90;;;;;;5091866;27;20042;-73
2023/12/06 11:44:53;;;;;;;13.25;9.55;;;4.30;99.90;;;;;;5090377;28;20035;-73
2023/12/06 11:47:26;;;;;;;16.92;7.88;;;4.50;99.90;;;;;;5090976;28;20122;-73
2023/12/06 11:49:53;;;;;;;13.80;7.47;;;4.60;99.90;;;;;;5090242;28;20042;-73
2023/12/06 11:52:20;;;;;;;10.95;5.97;;;4.70;99.90;;;;;;5090991;28;20077;-72
2023/12/06 11:54:46;;;;;;;11.48;5.35;;;4.60;99.90;;;;;;5091265;28;20123;-73
2023/12/06 11:57:14;;;;;;;9.15;5.85;;;4.50;99.90;;;;;;5089903;27;20023;-73
2023/12/06 11:59:40;;;;;;;14.35;6.72;;;4.50;99.90;;;;;;5091105;28;20031;-72
2023/12/06 12:02:06;;;;;;;8.57;5.35;;;4.40;99.90;;;;;;5091894;28;20059;-73
2023/12/06 12:04:36;;;;;;;9.18;5.38;;;4.50;99.90;;;;;;5089939;28;20040;-73
2023/12/06 12:07:02;;;;;;;11.40;5.85;;;4.60;99.90;;;;;;5090321;28;20256;-73
2023/12/06 12:09:29;;;;;;;8.25;5.07;;;4.50;99.90;;;;;;5091038;28;20040;-73
2023/12/06 12:11:56;;;;;;;11.70;6.00;;;4.50;99.90;;;;;;5089826;28;20039;-72
2023/12/06 12:14:21;;;;;;;15.65;6.32;;;4.60;99.90;;;;;;5089737;28;20083;-72
2023/12/06 12:16:47;;;;;;;10.48;6.07;;;4.70;99.90;;;;;;5090064;28;20038;-72
2023/12/06 12:19:13;;;;;;;9.05;5.78;;;4.60;99.90;;;;;;5088157;28;20063;-73
2023/12/06 12:21:39;;;;;;;11.27;5.63;;;4.70;99.90;;;;;;5089857;28;20038;-72
2023/12/06 12:24:06;;;;;;;8.52;5.32;;;4.60;99.90;;;;;;5086384;28;20080;-72
2023/12/06 12:26:32;;;;;;;8.82;5.57;;;4.60;99.90;;;;;;5087301;28;20047;-72
2023/12/06 12:28:58;;;;;;;13.30;7.72;;;4.60;99.90;;;;;;5089811;28;20446;-72
2023/12/06 12:31:28;;;;;;;10.43;6.78;;;4.60;99.90;;;;;;5089875;28;20071;-73
2023/12/06 12:33:55;;;;;;;9.85;5.97;;;4.60;99.90;;;;;;5089381;28;20059;-72
2023/12/06 12:36:21;;;;;;;8.98;5.25;;;4.50;99.90;;;;;;5088472;28;21716;-73
2023/12/06 12:38:47;;;;;;;9.25;5.93;;;4.50;99.90;;;;;;5086828;28;20481;-72
2023/12/06 12:41:13;;;;;;;15.02;5.53;;;4.70;99.90;;;;;;5086232;28;20053;-73
2023/12/06 12:43:39;;;;;;;9.70;5.28;;;4.60;99.90;;;;;;5087833;28;20028;-73
2023/12/06 12:46:05;;;;;;;11.63;5.70;;;4.80;99.90;;;;;;5086422;28;20051;-73
2023/12/06 12:48:31;;;;;;;9.98;5.32;;;4.90;99.90;;;;;;5086443;28;20043;-73
2023/12/06 12:51:13;;;;;;;10.73;5.85;;;5.00;99.90;;;;;;5088530;28;20491;-73
2023/12/06 12:53:41;;;;;;;18.52;11.55;;;5.00;99.90;;;;;;5090483;28;20039;-73